createdAt,value
2022-11-07T00:03:20.327Z,100686.47
2022-11-07T00:08:32.177Z,100689.84
2022-11-07T00:13:37.073Z,100685.53
2022-11-07T00:18:41.141Z,100687.31
2022-11-07T00:23:45.547Z,100690.78
2022-11-07T00:28:48.893Z,100699.34
2022-11-07T00:33:52.755Z,100691.53
2022-11-07T00:38:57.920Z,100687.13
2022-11-07T00:44:00.977Z,100703.66
2022-11-07T00:49:03.978Z,100712.38
2022-11-07T00:54:08.429Z,100709.69
2022-11-07T00:59:11.416Z,100718.31
2022-11-07T01:04:32.874Z,100711.31
2022-11-07T01:09:37.663Z,100719.09
2022-11-07T01:14:40.976Z,100725.25
2022-11-07T01:19:44.034Z,100720.00
2022-11-07T01:24:48.735Z,100729.59
2022-11-07T01:29:51.692Z,100737.56
2022-11-07T01:34:54.959Z,100739.38
2022-11-07T01:39:59.545Z,100744.56
2022-11-07T01:45:02.659Z,100747.19
2022-11-07T01:50:08.640Z,100754.16
2022-11-07T01:55:17.248Z,100756.78
2022-11-07T02:00:23.210Z,100761.25
2022-11-07T02:05:30.554Z,100765.69
2022-11-07T02:10:36.238Z,100763.00
2022-11-07T02:15:39.503Z,100759.41
2022-11-07T02:20:43.144Z,100762.81
2022-11-07T02:25:48.029Z,100760.94
2022-11-07T02:30:51.313Z,100779.31
2022-11-07T02:35:55.734Z,100762.56
2022-11-07T02:41:05.002Z,100763.56
2022-11-07T02:46:11.751Z,100769.72
2022-11-07T02:51:14.931Z,100763.63
2022-11-07T02:56:20.063Z,100755.69
2022-11-07T03:01:25.324Z,100765.34
2022-11-07T03:06:28.652Z,100770.88
2022-11-07T03:11:33.272Z,100764.78
2022-11-07T03:16:36.436Z,100778.03
2022-11-07T03:21:39.643Z,100773.03
2022-11-07T03:26:44.337Z,100791.63
2022-11-07T03:31:47.407Z,100776.97
2022-11-07T03:36:50.891Z,100792.03
2022-11-07T03:41:55.708Z,100782.50
2022-11-07T03:46:59.255Z,100781.47
2022-11-07T03:52:02.513Z,100771.88
2022-11-07T03:57:07.496Z,100765.72
2022-11-07T04:02:10.571Z,100769.50
2022-11-07T04:07:13.787Z,100776.66
2022-11-07T04:12:35.719Z,100771.56
2022-11-07T04:17:38.788Z,100772.34
2022-11-07T04:22:42.026Z,100772.22
2022-11-07T04:27:47.259Z,100778.31
2022-11-07T04:32:51.783Z,100770.44
2022-11-07T04:37:55.378Z,100765.16
2022-11-07T04:43:00.136Z,100774.88
2022-11-07T04:48:03.244Z,100773.16
2022-11-07T04:53:06.763Z,100782.75
2022-11-07T04:58:14.187Z,100781.97
2022-11-07T05:03:17.658Z,100785.59
2022-11-07T05:08:21.320Z,100784.78
2022-11-07T05:13:25.956Z,100782.22
2022-11-07T05:18:29.351Z,100784.13
2022-11-07T05:23:32.379Z,100787.91
2022-11-07T05:28:39.486Z,100791.34
2022-11-07T05:33:43.564Z,100792.22
2022-11-07T05:38:48.208Z,100792.09
2022-11-07T05:43:52.688Z,100780.69
2022-11-07T05:49:00.709Z,100782.44
2022-11-07T05:54:04.454Z,100791.19
2022-11-07T05:59:10.383Z,100783.28
2022-11-07T06:04:13.518Z,100777.06
2022-11-07T06:09:16.619Z,100783.31
2022-11-07T06:14:21.209Z,100800.09
2022-11-07T06:19:24.319Z,100793.13
2022-11-07T06:24:27.910Z,100783.56
2022-11-07T06:29:32.405Z,100780.91
2022-11-07T06:34:35.388Z,100796.00
2022-11-07T06:39:38.658Z,100802.19
2022-11-07T06:44:43.212Z,100800.41
2022-11-07T06:49:46.774Z,100809.25
2022-11-07T06:54:50.097Z,100814.53
2022-11-07T06:59:54.533Z,100823.38
2022-11-07T07:04:57.730Z,100824.16
2022-11-07T07:10:00.693Z,100828.66
2022-11-07T07:15:05.860Z,100840.22
2022-11-07T07:20:10.187Z,100839.41
2022-11-07T07:25:13.221Z,100844.00
2022-11-07T07:30:18.277Z,100843.22
2022-11-07T07:35:22.186Z,100846.03
2022-11-07T07:40:25.548Z,100861.16
2022-11-07T07:45:32.954Z,100865.78
2022-11-07T07:50:36.045Z,100876.69
2022-11-07T07:55:39.337Z,100885.72
2022-11-07T08:00:44.008Z,100874.38
2022-11-07T08:05:54.354Z,100888.59
2022-11-07T08:11:02.272Z,100886.41
2022-11-07T08:16:08.746Z,100889.22
2022-11-07T08:21:11.806Z,100893.25
2022-11-07T08:26:14.885Z,100899.47
2022-11-07T08:31:19.467Z,100916.03
2022-11-07T08:36:22.731Z,100918.97
2022-11-07T08:41:26.153Z,100928.19
2022-11-07T08:46:30.792Z,100933.81
2022-11-07T08:51:34.356Z,100928.63
2022-11-07T08:56:37.427Z,100944.59
2022-11-07T09:02:15.039Z,100934.06
2022-11-07T09:07:05.640Z,100943.00
2022-11-07T09:12:09.627Z,100946.81
2022-11-07T09:17:14.209Z,100947.19
2022-11-07T09:22:17.432Z,100963.19
2022-11-07T09:27:20.422Z,100961.50
2022-11-07T09:32:43.819Z,100965.84
2022-11-07T09:37:47.333Z,100963.31
2022-11-07T09:43:04.365Z,100966.00
2022-11-07T09:48:21.418Z,100961.03
2022-11-07T09:53:30.971Z,100960.59
2022-11-07T09:58:38.296Z,100964.81
2022-11-07T10:04:03.757Z,100971.47
2022-11-07T10:09:15.191Z,100984.75
2022-11-07T10:14:29.746Z,100990.19
2022-11-07T10:19:50.310Z,100999.03
2022-11-07T10:25:12.062Z,100990.59
2022-11-07T10:30:18.320Z,100986.50
2022-11-07T10:35:28.331Z,101005.06
2022-11-07T10:40:36.703Z,101008.81
2022-11-07T10:45:41.458Z,101004.44
2022-11-07T10:50:54.201Z,101006.13
2022-11-07T10:55:57.494Z,101010.47
2022-11-07T11:01:04.568Z,101008.59
2022-11-07T11:06:20.922Z,101020.28
2022-11-07T11:11:29.597Z,101005.81
2022-11-07T11:16:37.211Z,101001.72
2022-11-07T11:21:44.597Z,101009.88
2022-11-07T11:26:51.062Z,100998.38
2022-11-07T11:31:57.886Z,100998.31
2022-11-07T11:37:07.726Z,100991.28
2022-11-07T11:42:20.253Z,100979.94
2022-11-07T11:47:30.380Z,100977.59
2022-11-07T11:52:38.801Z,100986.00
2022-11-07T11:57:52.366Z,100990.72
2022-11-07T12:03:22.993Z,100985.59
2022-11-07T12:08:42.804Z,100982.03
2022-11-07T12:13:55.532Z,100989.31
2022-11-07T12:19:08.087Z,100988.59
2022-11-07T12:24:31.461Z,100980.94
2022-11-07T12:29:49.373Z,100980.91
2022-11-07T12:35:06.359Z,100979.06
2022-11-07T12:40:28.991Z,100980.63
2022-11-07T12:45:46.663Z,100989.13
2022-11-07T12:50:56.600Z,100992.41
2022-11-07T12:56:04.759Z,100984.19
2022-11-07T13:01:09.141Z,100980.47
2022-11-07T13:06:18.207Z,100974.94
2022-11-07T13:11:29.686Z,100973.16
2022-11-07T13:16:38.064Z,100972.44
2022-11-07T13:21:42.878Z,100961.09
2022-11-07T13:26:48.170Z,100971.78
2022-11-07T13:32:06.477Z,100967.47
2022-11-07T13:37:17.729Z,100960.44
2022-11-07T13:42:25.513Z,100958.88
2022-11-07T13:47:35.307Z,100952.78
2022-11-07T13:52:45.632Z,100952.91
2022-11-07T13:57:54.997Z,100956.47
2022-11-07T14:02:59.904Z,100959.84
2022-11-07T14:08:05.461Z,100957.19
2022-11-07T14:13:13.500Z,100962.25
2022-11-07T14:18:18.695Z,100964.81
2022-11-07T14:23:24.379Z,100976.19
2022-11-07T14:28:36.224Z,100971.59
2022-11-07T14:33:39.676Z,100975.06
2022-11-07T14:38:46.984Z,100970.50
2022-11-07T14:43:52.675Z,100976.41
2022-11-07T14:48:56.676Z,100974.44
2022-11-07T14:54:04.003Z,100972.41
2022-11-07T14:59:14.139Z,100974.88
2022-11-07T15:04:27.281Z,100977.41
2022-11-07T15:09:35.938Z,100967.50
2022-11-07T15:14:40.432Z,100983.25
2022-11-07T15:19:44.368Z,100974.16
2022-11-07T15:24:47.882Z,100973.00
2022-11-07T15:29:56.392Z,100978.06
2022-11-07T15:35:17.498Z,100972.63
2022-11-07T15:40:24.289Z,100968.97
2022-11-07T15:45:28.841Z,100967.94
2022-11-07T15:50:32.222Z,100965.19
2022-11-07T15:55:35.336Z,100966.88
2022-11-07T16:00:39.872Z,100966.03
2022-11-07T16:05:43.889Z,100972.44
2022-11-07T16:10:48.747Z,100970.75
2022-11-07T16:15:57.721Z,100974.38
2022-11-07T16:21:00.739Z,100973.53
2022-11-07T16:26:03.923Z,100973.53
2022-11-07T16:31:08.794Z,100974.47
2022-11-07T16:36:20.734Z,100971.81
2022-11-07T16:41:24.711Z,100978.00
2022-11-07T16:46:30.233Z,100984.19
2022-11-07T16:51:34.353Z,100980.69
2022-11-07T16:56:37.610Z,100974.53
2022-11-07T17:01:42.324Z,100977.31
2022-11-07T17:06:47.881Z,100979.97
2022-11-07T17:11:51.012Z,100972.09
2022-11-07T17:16:55.676Z,100970.25
2022-11-07T17:21:58.814Z,100977.38
2022-11-07T17:27:02.163Z,100972.97
2022-11-07T17:32:07.266Z,100966.84
2022-11-07T17:37:15.108Z,100963.28
2022-11-07T17:42:18.191Z,100979.03
2022-11-07T17:47:29.686Z,100980.63
2022-11-07T17:52:33.136Z,100988.38
2022-11-07T17:57:36.266Z,100980.31
2022-11-07T18:02:40.901Z,100982.88
2022-11-07T18:07:44.531Z,100980.19
2022-11-07T18:12:47.685Z,100982.69
2022-11-07T18:17:52.275Z,100982.56
2022-11-07T18:22:55.258Z,100977.19
2022-11-07T18:27:58.592Z,100984.16
2022-11-07T18:33:03.088Z,100985.25
2022-11-07T18:38:06.240Z,100982.63
2022-11-07T18:43:11.784Z,100978.25
2022-11-07T18:48:17.645Z,100990.50
2022-11-07T18:53:21.047Z,100988.56
2022-11-07T18:58:24.039Z,100990.22
2022-11-07T19:03:28.580Z,100990.94
2022-11-07T19:08:33.711Z,100992.69
2022-11-07T19:13:38.144Z,100990.03
2022-11-07T19:18:48.173Z,100989.06
2022-11-07T19:23:52.581Z,100989.03
2022-11-07T19:28:57.497Z,100989.84
2022-11-07T19:34:01.876Z,100987.13
2022-11-07T19:39:05.155Z,100992.34
2022-11-07T19:44:08.484Z,100989.72
2022-11-07T19:49:12.993Z,100990.50
2022-11-07T19:54:16.062Z,100985.25
2022-11-07T19:59:19.317Z,100990.59
2022-11-07T20:04:23.695Z,100991.50
2022-11-07T20:09:27.253Z,100999.44
2022-11-07T20:14:30.327Z,100999.44
2022-11-07T20:19:35.366Z,101005.63
2022-11-07T20:24:38.619Z,101009.28
2022-11-07T20:29:41.666Z,101010.25
2022-11-07T20:34:51.303Z,101004.22
2022-11-07T20:39:56.954Z,101009.59
2022-11-07T20:45:00.509Z,101001.75
2022-11-07T20:50:05.356Z,101010.53
2022-11-07T20:55:09.170Z,101007.97
2022-11-07T21:00:14.025Z,101009.72
2022-11-07T21:05:19.056Z,100997.41
2022-11-07T21:10:22.595Z,100997.41
2022-11-07T21:15:26.289Z,101008.06
2022-11-07T21:20:30.811Z,101008.06
2022-11-07T21:25:34.271Z,101005.34
2022-11-07T21:30:38.395Z,100999.28
2022-11-07T21:35:43.585Z,101004.63
2022-11-07T21:40:47.173Z,100993.19
2022-11-07T21:45:50.308Z,100997.69
2022-11-07T21:50:54.818Z,100985.25
2022-11-07T21:56:00.084Z,100995.81
2022-11-07T22:01:03.942Z,100980.84
2022-11-07T22:06:10.600Z,100986.88
2022-11-07T22:11:13.912Z,100988.59
2022-11-07T22:16:19.661Z,100976.22
2022-11-07T22:21:25.015Z,100985.03
2022-11-07T22:26:29.008Z,100982.28
2022-11-07T22:31:32.703Z,100981.41
2022-11-07T22:36:37.239Z,100984.03
2022-11-07T22:41:40.267Z,100975.22
2022-11-07T22:46:43.754Z,100984.75
2022-11-07T22:51:48.199Z,100969.59
2022-11-07T22:56:51.239Z,100957.13
2022-11-07T23:01:54.903Z,100959.47
2022-11-07T23:06:59.494Z,100944.19
2022-11-07T23:12:02.603Z,100945.88
2022-11-07T23:17:05.910Z,100933.22
2022-11-07T23:22:10.472Z,100932.91
2022-11-07T23:27:13.615Z,100941.38
2022-11-07T23:32:16.963Z,100939.41
2022-11-07T23:37:21.268Z,100924.16
2022-11-07T23:42:24.529Z,100927.47
2022-11-07T23:47:44.919Z,100921.94
2022-11-07T23:52:49.302Z,100926.09
2022-11-07T23:58:09.586Z,100924.16
